createdAt,value
2022-12-31T04:56:54.765Z,79164.56
2022-12-31T04:59:44.069Z,79181.84
2022-12-31T05:02:33.669Z,79169.34
2022-12-31T05:05:23.312Z,79167.38
2022-12-31T05:08:14.076Z,79193.16
2022-12-31T05:11:03.515Z,79183.19
2022-12-31T05:13:52.693Z,79178.38
2022-12-31T05:16:42.637Z,79170.94
2022-12-31T05:19:32.005Z,79179.34
2022-12-31T05:22:30.310Z,79182.94
2022-12-31T05:25:19.656Z,79166.19
2022-12-31T05:28:09.071Z,79165.19
2022-12-31T05:30:58.496Z,79161.13
2022-12-31T05:33:47.686Z,79169.25
2022-12-31T05:36:36.990Z,79159.53
2022-12-31T05:39:26.233Z,79174.84
2022-12-31T05:42:15.465Z,79172.09
2022-12-31T05:45:04.946Z,79165.44
2022-12-31T05:47:54.141Z,79182.13
2022-12-31T05:50:43.648Z,79170.69
2022-12-31T05:53:33.826Z,79179.53
2022-12-31T05:56:23.049Z,79159.56
2022-12-31T05:59:12.358Z,79170.81
2022-12-31T06:02:02.768Z,79175.31
2022-12-31T06:04:52.842Z,79153.75
2022-12-31T06:07:42.128Z,79168.03
2022-12-31T06:10:31.669Z,79164.44
2022-12-31T06:13:20.849Z,79147.25
2022-12-31T06:16:12.034Z,79164.78
2022-12-31T06:19:02.464Z,79154.28
2022-12-31T06:21:51.950Z,79161.53
2022-12-31T06:24:41.212Z,79157.81
2022-12-31T06:27:30.324Z,79150.16
2022-12-31T06:30:20.092Z,79145.56
2022-12-31T06:33:09.795Z,79142.19
2022-12-31T06:36:01.416Z,79139.72
2022-12-31T06:38:51.196Z,79139.16
2022-12-31T06:41:40.473Z,79122.63
2022-12-31T06:44:29.646Z,79128.53
2022-12-31T06:47:18.792Z,79126.00
2022-12-31T06:50:09.531Z,79127.47
2022-12-31T06:52:58.649Z,79109.59
2022-12-31T06:55:50.779Z,79118.03
2022-12-31T06:58:40.622Z,79106.47
2022-12-31T07:01:41.692Z,79099.22
2022-12-31T07:04:47.082Z,79096.38
2022-12-31T07:08:15.882Z,79087.56
2022-12-31T07:11:09.550Z,79059.66
2022-12-31T07:14:21.403Z,79065.13
2022-12-31T07:17:13.423Z,79076.22
2022-12-31T07:20:10.525Z,79055.88
2022-12-31T07:23:01.058Z,79059.78
2022-12-31T07:26:01.450Z,79076.03
2022-12-31T07:29:29.657Z,79063.22
2022-12-31T07:32:44.486Z,79064.19
2022-12-31T07:35:55.588Z,79048.47
2022-12-31T07:38:56.685Z,79057.34
2022-12-31T07:42:17.633Z,79051.13
2022-12-31T07:45:20.740Z,79049.47
2022-12-31T07:48:27.020Z,79040.03
2022-12-31T07:51:16.864Z,79036.31
2022-12-31T07:54:11.857Z,79042.16
2022-12-31T07:57:03.292Z,79041.66
2022-12-31T08:00:16.217Z,79048.72
2022-12-31T08:03:18.605Z,79044.09
2022-12-31T08:06:32.112Z,79024.19
2022-12-31T08:09:49.112Z,79033.81
2022-12-31T08:12:41.437Z,79028.94
2022-12-31T08:15:31.547Z,79022.41
2022-12-31T08:18:20.933Z,79019.75
2022-12-31T08:21:31.103Z,79023.00
2022-12-31T08:24:32.408Z,79020.16
2022-12-31T08:27:51.647Z,79023.25
2022-12-31T08:30:55.133Z,79025.69
2022-12-31T08:33:44.364Z,79022.38
2022-12-31T08:37:02.671Z,79024.53
2022-12-31T08:40:18.971Z,79008.44
2022-12-31T08:43:42.790Z,79021.03
2022-12-31T08:46:46.119Z,79024.38
2022-12-31T08:49:36.800Z,79010.94
2022-12-31T08:52:28.116Z,79025.53
2022-12-31T08:55:19.678Z,79010.00
2022-12-31T08:58:23.272Z,79005.03
2022-12-31T09:01:16.161Z,79001.97
2022-12-31T09:04:34.887Z,78994.25
2022-12-31T09:07:35.495Z,78994.56
2022-12-31T09:10:27.443Z,78993.94
2022-12-31T09:13:33.322Z,78997.72
2022-12-31T09:16:29.587Z,78980.84
2022-12-31T09:19:18.850Z,78972.81
2022-12-31T09:22:08.263Z,78972.47
2022-12-31T09:24:57.562Z,78953.88
2022-12-31T09:28:20.888Z,78971.53
2022-12-31T09:31:40.168Z,78976.50
2022-12-31T09:34:32.724Z,78974.09
2022-12-31T09:37:40.130Z,78974.66
2022-12-31T09:40:59.881Z,78975.34
2022-12-31T09:44:06.754Z,78972.34
2022-12-31T09:47:31.705Z,78968.59
2022-12-31T09:50:30.523Z,78943.00
2022-12-31T09:53:56.678Z,78967.50
2022-12-31T09:57:14.473Z,78964.44
2022-12-31T10:00:26.430Z,78968.28
2022-12-31T10:03:46.254Z,78974.06
2022-12-31T10:06:52.041Z,78973.63
2022-12-31T10:09:48.223Z,78967.97
2022-12-31T10:12:43.879Z,78952.09
2022-12-31T10:16:05.017Z,78958.34
2022-12-31T10:19:19.440Z,78961.25
2022-12-31T10:22:29.902Z,78975.47
2022-12-31T10:25:40.131Z,78976.41
2022-12-31T10:28:52.852Z,78971.91
2022-12-31T10:31:52.762Z,78974.91
2022-12-31T10:35:03.344Z,78960.50
2022-12-31T10:38:14.821Z,78967.13
2022-12-31T10:41:47.236Z,78964.78
2022-12-31T10:44:36.697Z,78970.13
2022-12-31T10:47:35.612Z,78966.56
2022-12-31T10:50:42.439Z,78962.91
2022-12-31T10:53:56.672Z,78960.16
2022-12-31T10:56:54.662Z,78963.53
2022-12-31T10:59:50.109Z,78963.16
2022-12-31T11:02:42.285Z,78963.91
2022-12-31T11:05:37.282Z,78962.06
2022-12-31T11:09:20.705Z,78955.81
2022-12-31T11:12:10.720Z,78979.75
2022-12-31T11:15:37.705Z,78972.59
2022-12-31T11:18:58.278Z,78979.13
2022-12-31T11:22:08.361Z,78977.59
2022-12-31T11:25:20.363Z,78962.84
2022-12-31T11:28:23.968Z,78968.63
2022-12-31T11:31:53.219Z,78966.81
2022-12-31T11:35:23.573Z,78949.84
2022-12-31T11:38:31.293Z,78957.88
2022-12-31T11:41:38.363Z,78958.63
2022-12-31T11:44:46.310Z,78945.53
2022-12-31T11:51:50.815Z,78961.59
2022-12-31T11:55:03.507Z,78943.13
2022-12-31T11:57:53.683Z,78943.16
2022-12-31T12:00:53.211Z,78929.31
2022-12-31T12:03:45.503Z,78953.09
2022-12-31T12:06:34.912Z,78939.88
2022-12-31T12:09:35.598Z,78948.47
2022-12-31T12:12:24.868Z,78959.69
2022-12-31T12:15:22.856Z,78944.47
2022-12-31T12:18:31.400Z,78947.06
2022-12-31T12:21:25.250Z,78944.41
2022-12-31T12:24:32.691Z,78943.75
2022-12-31T12:27:25.957Z,78958.19
2022-12-31T12:30:27.813Z,78955.47
2022-12-31T12:33:21.789Z,78953.34
2022-12-31T12:36:16.437Z,78962.53
2022-12-31T12:39:07.671Z,78957.13
2022-12-31T12:42:11.794Z,78947.16
2022-12-31T12:45:16.114Z,78951.75
2022-12-31T12:48:14.844Z,78936.44
2022-12-31T12:51:26.322Z,78942.25
2022-12-31T12:54:33.729Z,78947.50
2022-12-31T12:57:32.009Z,78955.97
2022-12-31T13:00:30.634Z,78947.31
2022-12-31T13:04:31.883Z,78956.50
2022-12-31T13:07:25.446Z,78950.41
2022-12-31T13:10:33.692Z,78931.88
2022-12-31T13:13:26.015Z,78949.69
2022-12-31T13:16:31.851Z,78940.28
2022-12-31T13:19:52.291Z,78940.13
2022-12-31T13:22:56.838Z,78943.97
2022-12-31T13:26:19.651Z,78945.16
2022-12-31T13:29:17.159Z,78931.88
2022-12-31T13:32:10.559Z,78952.94
2022-12-31T13:35:18.126Z,78945.03
2022-12-31T13:38:19.089Z,78937.06
2022-12-31T13:41:19.161Z,78951.00
2022-12-31T13:44:36.273Z,78965.50
2022-12-31T13:47:34.199Z,78951.44
2022-12-31T13:50:39.793Z,78958.75
2022-12-31T13:53:38.797Z,78924.88
2022-12-31T13:56:32.752Z,78955.97
2022-12-31T13:59:37.697Z,78952.53
2022-12-31T14:02:56.286Z,78959.41
2022-12-31T14:05:56.552Z,78974.06
2022-12-31T14:08:47.045Z,78959.34
2022-12-31T14:12:12.989Z,78984.44
2022-12-31T14:15:32.529Z,78989.56
2022-12-31T14:18:49.242Z,78983.00
2022-12-31T14:22:02.595Z,78980.22
2022-12-31T14:24:53.589Z,78981.59
2022-12-31T14:27:46.289Z,78986.13
2022-12-31T14:30:39.744Z,78984.91
2022-12-31T14:33:40.866Z,78975.22
2022-12-31T14:37:08.188Z,78980.22
2022-12-31T14:40:00.297Z,78990.72
2022-12-31T14:43:04.903Z,78994.16
2022-12-31T14:45:54.407Z,78985.28
2022-12-31T14:48:56.702Z,78989.72
2022-12-31T14:51:46.239Z,78980.16
2022-12-31T14:54:39.904Z,78995.44
2022-12-31T14:58:25.413Z,78978.94
2022-12-31T15:01:00.673Z,78990.09
2022-12-31T15:03:53.283Z,78992.13
2022-12-31T15:06:42.480Z,78993.81
2022-12-31T15:10:00.273Z,78988.97
2022-12-31T15:12:58.322Z,78991.44
2022-12-31T15:16:02.682Z,78993.91
2022-12-31T15:19:16.709Z,78983.19
2022-12-31T15:22:24.314Z,79003.00
2022-12-31T15:25:41.572Z,78989.16
2022-12-31T15:28:39.515Z,78990.38
2022-12-31T15:31:33.554Z,78984.34
2022-12-31T15:34:34.821Z,78996.25
2022-12-31T15:37:36.340Z,78985.63
2022-12-31T15:40:29.905Z,78993.81
2022-12-31T15:43:25.789Z,79007.16
2022-12-31T15:46:26.212Z,78984.53
2022-12-31T15:49:24.611Z,79006.91
2022-12-31T15:52:44.147Z,79017.88
2022-12-31T15:55:55.376Z,79014.44
2022-12-31T15:58:48.261Z,79017.78
2022-12-31T16:01:38.254Z,78995.50
2022-12-31T16:04:40.537Z,79018.59
2022-12-31T16:07:30.301Z,79007.78
2022-12-31T16:10:28.548Z,79024.44
2022-12-31T16:13:25.203Z,79012.31
2022-12-31T16:16:26.023Z,79011.06
2022-12-31T16:19:33.029Z,79014.50
2022-12-31T16:22:29.394Z,79018.22
2022-12-31T16:25:36.265Z,79009.34
2022-12-31T16:28:32.531Z,78998.09
2022-12-31T16:31:22.567Z,79011.19
2022-12-31T16:34:27.352Z,79004.78
2022-12-31T16:37:19.114Z,79023.03
2022-12-31T16:40:17.640Z,79040.59
2022-12-31T16:43:25.464Z,79030.31
2022-12-31T16:46:27.975Z,79017.78
2022-12-31T16:49:22.330Z,79032.56
2022-12-31T16:52:44.061Z,79032.59
2022-12-31T16:55:34.401Z,79026.31
2022-12-31T16:58:34.695Z,79031.94
2022-12-31T17:01:28.941Z,79042.25
2022-12-31T17:04:21.566Z,79046.84
2022-12-31T17:07:31.791Z,79054.81
2022-12-31T17:10:37.423Z,79041.94
2022-12-31T17:13:31.728Z,79044.13
2022-12-31T17:16:21.816Z,79037.41
2022-12-31T17:20:00.152Z,79051.63
2022-12-31T17:22:51.444Z,79038.34
2022-12-31T17:25:40.779Z,79043.72
2022-12-31T17:28:39.642Z,79032.06
2022-12-31T17:31:36.404Z,79050.97
2022-12-31T17:34:22.995Z,79024.53
2022-12-31T17:37:31.562Z,79047.00
2022-12-31T17:40:48.691Z,79030.56
2022-12-31T17:42:53.033Z,79032.06
2022-12-31T17:45:23.593Z,79051.81
2022-12-31T17:47:54.657Z,79036.66
2022-12-31T17:50:26.196Z,78996.94
2022-12-31T17:53:03.747Z,79003.75
2022-12-31T17:55:32.760Z,78986.53
2022-12-31T17:58:05.366Z,79039.91
2022-12-31T18:00:35.646Z,79049.09
2022-12-31T18:03:05.018Z,79021.94
2022-12-31T18:05:33.746Z,79035.59
2022-12-31T18:08:02.981Z,79004.47
2022-12-31T18:10:37.175Z,79023.03
2022-12-31T18:13:09.938Z,79006.63
2022-12-31T18:15:38.808Z,79032.38
2022-12-31T18:18:24.718Z,79029.59
2022-12-31T18:20:58.391Z,78954.88
2022-12-31T18:23:31.803Z,79026.22
2022-12-31T18:26:00.701Z,79034.59
2022-12-31T18:28:29.419Z,78983.19
2022-12-31T18:30:58.753Z,79003.38
2022-12-31T18:33:27.812Z,79030.28
2022-12-31T18:36:11.906Z,78994.34
2022-12-31T18:38:40.859Z,79023.28
2022-12-31T18:41:18.129Z,78990.06
2022-12-31T18:43:47.909Z,79006.09
2022-12-31T18:46:20.229Z,79003.53
2022-12-31T18:48:49.808Z,78989.56
2022-12-31T18:51:31.108Z,78906.81
2022-12-31T18:54:02.366Z,79005.00
2022-12-31T18:56:31.186Z,79012.03
2022-12-31T18:59:00.654Z,78953.28
2022-12-31T19:01:36.808Z,79008.88
2022-12-31T19:04:27.204Z,78989.13
2022-12-31T19:06:57.700Z,78991.72
2022-12-31T19:12:16.456Z,79002.34
2022-12-31T19:14:46.406Z,78999.44
2022-12-31T19:17:15.371Z,78955.56
2022-12-31T19:19:44.068Z,78996.22
2022-12-31T19:22:21.969Z,78981.47
2022-12-31T19:24:51.024Z,78952.13
2022-12-31T19:27:19.896Z,78995.75
2022-12-31T19:29:49.563Z,78981.81
2022-12-31T19:32:18.371Z,78985.78
2022-12-31T19:34:47.255Z,78969.78
2022-12-31T19:37:16.966Z,78943.00
2022-12-31T19:39:45.926Z,78937.88
2022-12-31T19:42:17.202Z,78952.22
2022-12-31T19:44:46.379Z,78972.63
2022-12-31T19:47:15.076Z,78954.66
2022-12-31T19:49:43.986Z,78946.53
2022-12-31T19:52:12.841Z,78981.41
2022-12-31T19:54:41.893Z,78952.69
2022-12-31T19:57:10.528Z,78962.31
2022-12-31T19:59:39.492Z,78976.19
2022-12-31T20:02:08.916Z,78967.69
2022-12-31T20:04:38.013Z,78928.06
2022-12-31T20:07:07.299Z,78960.69
2022-12-31T20:09:36.143Z,78917.63
2022-12-31T20:12:04.997Z,78940.97
2022-12-31T20:14:34.563Z,78934.94
2022-12-31T20:17:03.412Z,78967.41
2022-12-31T20:19:32.249Z,78945.03
2022-12-31T20:22:01.474Z,78938.88
2022-12-31T20:24:30.338Z,78940.69
2022-12-31T20:26:59.011Z,78942.03
2022-12-31T20:29:28.086Z,78930.16
2022-12-31T20:31:56.983Z,78940.44
2022-12-31T20:34:25.938Z,78922.44
2022-12-31T20:36:54.780Z,78932.44
2022-12-31T20:39:24.192Z,78948.91
2022-12-31T20:41:53.236Z,78933.88
2022-12-31T20:44:22.604Z,78945.84
2022-12-31T20:46:51.533Z,78944.03
2022-12-31T20:49:31.330Z,78924.72
2022-12-31T20:52:09.564Z,78952.09
2022-12-31T20:54:38.388Z,78941.06
2022-12-31T20:57:07.370Z,78932.25
2022-12-31T20:59:36.161Z,78931.44
2022-12-31T21:02:21.090Z,78936.78
2022-12-31T21:04:50.858Z,78937.47
2022-12-31T21:07:19.683Z,78956.84
2022-12-31T21:09:48.626Z,78935.56
2022-12-31T21:12:35.574Z,78925.72
2022-12-31T21:15:04.818Z,78909.50
2022-12-31T21:17:33.558Z,78918.91
2022-12-31T21:20:02.486Z,78906.56
2022-12-31T21:22:31.224Z,78942.16
2022-12-31T21:25:01.990Z,78938.25
2022-12-31T21:27:32.340Z,78941.00
2022-12-31T21:30:18.448Z,78925.81
2022-12-31T21:32:47.885Z,78913.09
2022-12-31T21:35:43.381Z,78945.50
2022-12-31T21:38:07.901Z,78945.53
2022-12-31T21:40:36.837Z,78939.66
2022-12-31T21:43:05.598Z,78898.75
2022-12-31T21:45:35.255Z,78940.81
2022-12-31T21:48:23.386Z,78892.28
2022-12-31T21:50:55.183Z,78939.28
2022-12-31T21:53:32.241Z,78938.50
2022-12-31T21:56:12.664Z,78938.91
2022-12-31T21:58:44.094Z,78925.88
2022-12-31T22:01:40.841Z,78937.22
2022-12-31T22:04:28.080Z,78921.84
2022-12-31T22:06:58.597Z,78928.41
2022-12-31T22:09:27.216Z,78915.13
2022-12-31T22:11:56.692Z,78919.53
2022-12-31T22:14:25.369Z,78941.31
2022-12-31T22:16:54.444Z,78927.09
2022-12-31T22:19:23.176Z,78922.78
2022-12-31T22:21:52.055Z,78910.78
2022-12-31T22:24:20.729Z,78938.50
2022-12-31T22:26:49.624Z,78899.00
2022-12-31T22:29:20.128Z,78856.03
2022-12-31T22:31:49.175Z,78904.53
2022-12-31T22:34:17.998Z,78935.69
2022-12-31T22:36:47.063Z,78854.94
2022-12-31T22:39:43.511Z,78939.03
2022-12-31T22:42:06.275Z,78926.47
2022-12-31T22:44:35.159Z,78904.88
2022-12-31T22:47:04.086Z,78887.91
2022-12-31T22:49:32.861Z,78904.41
2022-12-31T22:52:04.368Z,78908.47
2022-12-31T22:54:37.904Z,78894.28
2022-12-31T22:57:06.715Z,78888.88
2022-12-31T22:59:35.987Z,78914.66
2022-12-31T23:02:04.921Z,78898.28
2022-12-31T23:04:34.308Z,78914.94
2022-12-31T23:07:03.080Z,78911.78
2022-12-31T23:09:50.473Z,78905.59
2022-12-31T23:12:19.799Z,78895.09
2022-12-31T23:15:06.738Z,78848.47
2022-12-31T23:17:54.093Z,78887.63
2022-12-31T23:20:43.740Z,78908.19
2022-12-31T23:23:17.398Z,78897.16
2022-12-31T23:25:52.550Z,78905.69
2022-12-31T23:28:24.677Z,78889.44
2022-12-31T23:30:54.027Z,78898.09
2022-12-31T23:33:25.588Z,78870.56
2022-12-31T23:36:07.958Z,78900.13
2022-12-31T23:38:36.888Z,78848.03
2022-12-31T23:41:21.034Z,78891.66
2022-12-31T23:43:50.781Z,78873.38
2022-12-31T23:46:19.418Z,78853.75
2022-12-31T23:48:48.315Z,78888.31
2022-12-31T23:51:17.515Z,78860.31
2022-12-31T23:53:46.373Z,78863.72
2022-12-31T23:56:23.681Z,78881.38
2022-12-31T23:58:57.847Z,78853.31
